createdAt,value
2018-09-10T00:00:40.621Z,99.50
2018-09-10T00:03:08.663Z,99.90
2018-09-10T00:05:36.716Z,99.90
2018-09-10T00:08:04.802Z,99.90
2018-09-10T00:10:32.852Z,99.90
2018-09-10T00:13:00.904Z,99.90
2018-09-10T00:15:29.000Z,99.90
2018-09-10T00:17:57.063Z,99.90
2018-09-10T00:20:25.129Z,99.90
2018-09-10T00:22:53.204Z,99.90
2018-09-10T00:25:21.260Z,99.90
2018-09-10T00:27:49.296Z,99.90
2018-09-10T00:30:17.371Z,99.90
2018-09-10T00:32:45.412Z,99.90
2018-09-10T00:35:13.448Z,99.90
2018-09-10T00:37:41.501Z,99.90
2018-09-10T00:40:09.545Z,99.90
2018-09-10T00:42:37.596Z,99.90
2018-09-10T00:45:05.644Z,99.90
2018-09-10T00:47:33.712Z,99.90
2018-09-10T00:50:01.757Z,99.90
2018-09-10T00:52:29.810Z,99.90
2018-09-10T00:54:57.868Z,99.90
2018-09-10T00:57:25.913Z,99.90
2018-09-10T00:59:53.977Z,99.90
2018-09-10T01:02:22.025Z,99.90
2018-09-10T01:04:50.073Z,99.90
2018-09-10T01:07:18.130Z,99.90
2018-09-10T01:09:46.180Z,99.90
2018-09-10T01:12:14.237Z,99.90
2018-09-10T01:14:42.272Z,99.90
2018-09-10T01:17:10.317Z,99.90
2018-09-10T01:19:38.360Z,99.90
2018-09-10T01:22:06.425Z,99.90
2018-09-10T01:24:34.472Z,99.90
2018-09-10T01:27:02.527Z,99.90
2018-09-10T01:29:30.584Z,99.90
2018-09-10T01:31:58.637Z,99.90
2018-09-10T01:35:05.552Z,99.90
2018-09-10T01:37:34.438Z,99.90
2018-09-10T01:40:02.812Z,99.90
2018-09-10T01:42:31.304Z,99.90
2018-09-10T01:44:59.768Z,99.90
2018-09-10T01:47:27.953Z,99.90
2018-09-10T01:49:56.120Z,99.90
2018-09-10T01:52:26.477Z,99.90
2018-09-10T01:54:54.552Z,99.90
2018-09-10T01:57:22.684Z,99.90
2018-09-10T01:59:50.747Z,99.90
2018-09-10T02:02:18.817Z,99.90
2018-09-10T02:04:46.848Z,99.90
2018-09-10T02:07:14.893Z,99.90
2018-09-10T02:09:42.933Z,99.90
2018-09-10T02:12:16.497Z,99.90
2018-09-10T02:14:44.534Z,99.90
2018-09-10T02:17:12.641Z,99.90
2018-09-10T02:19:40.599Z,99.90
2018-09-10T02:22:08.648Z,99.90
2018-09-10T02:24:36.822Z,99.90
2018-09-10T02:27:04.987Z,99.90
2018-09-10T02:29:33.011Z,99.90
2018-09-10T02:32:01.067Z,99.90
2018-09-10T02:34:29.099Z,99.90
2018-09-10T02:36:57.144Z,99.90
2018-09-10T02:39:25.187Z,99.90
2018-09-10T02:41:53.240Z,99.90
2018-09-10T02:44:21.272Z,99.90
2018-09-10T02:46:49.326Z,99.90
2018-09-10T02:49:17.360Z,99.90
2018-09-10T02:51:45.416Z,99.90
2018-09-10T02:54:13.457Z,99.90
2018-09-10T02:56:41.479Z,99.90
2018-09-10T02:59:09.512Z,99.90
2018-09-10T03:01:37.584Z,99.90
2018-09-10T03:04:05.627Z,99.90
2018-09-10T03:06:33.661Z,99.90
2018-09-10T03:09:01.695Z,99.90
2018-09-10T03:11:29.737Z,99.90
2018-09-10T03:13:57.793Z,99.90
2018-09-10T03:16:25.834Z,99.90
2018-09-10T03:18:53.867Z,99.90
2018-09-10T03:21:21.910Z,99.90
2018-09-10T03:23:49.947Z,99.90
2018-09-10T03:26:17.980Z,99.90
2018-09-10T03:28:46.023Z,99.90
2018-09-10T03:31:14.068Z,99.90
2018-09-10T03:33:42.153Z,99.90
2018-09-10T03:36:10.235Z,99.90
2018-09-10T03:38:38.281Z,99.90
2018-09-10T03:41:06.302Z,99.90
2018-09-10T03:43:34.341Z,99.90
2018-09-10T03:46:02.375Z,99.90
2018-09-10T03:48:30.468Z,99.90
2018-09-10T03:50:58.498Z,99.90
2018-09-10T03:53:26.613Z,99.90
2018-09-10T03:55:54.679Z,99.90
2018-09-10T03:58:22.715Z,99.90
2018-09-10T04:00:50.760Z,99.90
2018-09-10T04:03:18.996Z,99.90
2018-09-10T04:05:47.068Z,99.90
2018-09-10T04:08:15.113Z,99.90
2018-09-10T04:10:43.151Z,99.90
2018-09-10T04:13:11.299Z,99.90
2018-09-10T04:15:39.327Z,99.90
2018-09-10T04:18:07.411Z,99.90
2018-09-10T04:20:35.485Z,99.90
2018-09-10T04:23:03.545Z,99.20
2018-09-10T04:25:31.655Z,98.70
2018-09-10T04:27:59.711Z,98.20
2018-09-10T04:30:27.743Z,97.80
2018-09-10T04:32:55.843Z,97.90
2018-09-10T04:35:23.915Z,97.30
2018-09-10T04:37:51.973Z,97.30
2018-09-10T04:40:20.055Z,96.90
2018-09-10T04:42:48.095Z,96.10
2018-09-10T04:45:16.139Z,95.90
2018-09-10T04:47:44.193Z,95.30
2018-09-10T04:50:12.228Z,95.10
2018-09-10T04:52:40.253Z,94.60
2018-09-10T04:55:08.292Z,94.20
2018-09-10T04:57:36.387Z,93.90
2018-09-10T05:00:05.073Z,93.70
2018-09-10T05:02:33.109Z,93.30
2018-09-10T05:05:01.171Z,93.30
2018-09-10T05:07:29.243Z,93.40
2018-09-10T05:09:57.308Z,93.60
2018-09-10T05:12:25.398Z,94.10
2018-09-10T05:14:54.710Z,93.80
2018-09-10T05:17:22.771Z,93.70
2018-09-10T05:19:50.831Z,94.10
2018-09-10T05:22:18.895Z,93.10
2018-09-10T05:24:46.941Z,92.30
2018-09-10T05:27:14.973Z,91.30
2018-09-10T05:29:43.188Z,90.30
2018-09-10T05:32:11.224Z,88.90
2018-09-10T05:34:39.268Z,87.50
2018-09-10T05:37:07.308Z,85.60
2018-09-10T05:39:35.361Z,84.00
2018-09-10T05:42:03.393Z,81.80
2018-09-10T05:44:31.446Z,80.40
2018-09-10T05:46:59.484Z,78.80
2018-09-10T05:49:28.391Z,76.50
2018-09-10T05:51:56.461Z,73.60
2018-09-10T05:54:24.502Z,68.60
2018-09-10T05:56:52.647Z,63.50
2018-09-10T05:59:20.809Z,59.80
2018-09-10T06:01:48.839Z,58.30
2018-09-10T06:04:16.926Z,57.10
2018-09-10T06:06:44.952Z,57.40
2018-09-10T06:09:13.060Z,57.50
2018-09-10T06:11:41.136Z,58.20
2018-09-10T06:14:09.197Z,59.60
2018-09-10T06:16:37.326Z,59.60
2018-09-10T06:19:05.323Z,58.40
2018-09-10T06:21:33.425Z,55.80
2018-09-10T06:24:02.100Z,53.30
2018-09-10T06:26:30.127Z,51.80
2018-09-10T06:28:58.167Z,49.60
2018-09-10T06:31:26.421Z,49.20
2018-09-10T06:33:55.310Z,47.50
2018-09-10T06:36:23.577Z,46.70
2018-09-10T06:38:51.601Z,45.80
2018-09-10T06:41:19.643Z,45.10
2018-09-10T06:43:47.708Z,45.70
2018-09-10T06:46:15.757Z,46.50
2018-09-10T06:48:43.783Z,48.10
2018-09-10T06:51:11.919Z,48.80
2018-09-10T06:53:39.952Z,49.40
2018-09-10T06:56:08.052Z,50.50
2018-09-10T06:58:36.212Z,51.10
2018-09-10T07:01:04.288Z,51.60
2018-09-10T07:03:32.329Z,51.90
2018-09-10T07:06:00.535Z,52.30
2018-09-10T07:08:28.577Z,52.50
2018-09-10T07:10:56.620Z,52.90
2018-09-10T07:13:25.118Z,52.70
2018-09-10T07:15:53.227Z,53.00
2018-09-10T07:18:21.432Z,53.10
2018-09-10T07:20:49.491Z,53.20
2018-09-10T07:23:17.643Z,53.00
2018-09-10T07:25:45.706Z,52.70
2018-09-10T07:28:14.071Z,53.00
2018-09-10T07:30:42.163Z,53.30
2018-09-10T07:33:10.217Z,53.80
2018-09-10T07:35:38.265Z,54.50
2018-09-10T07:38:06.308Z,54.50
2018-09-10T07:40:34.384Z,54.10
2018-09-10T07:43:02.411Z,54.10
2018-09-10T07:45:30.470Z,54.00
2018-09-10T07:47:58.499Z,54.30
2018-09-10T07:50:26.539Z,54.40
2018-09-10T07:52:54.563Z,54.40
2018-09-10T07:55:22.665Z,54.50
2018-09-10T07:57:50.721Z,54.40
2018-09-10T08:00:18.755Z,54.50
2018-09-10T08:02:46.795Z,54.30
2018-09-10T08:05:14.837Z,54.40
2018-09-10T08:07:42.867Z,54.60
2018-09-10T08:10:10.905Z,54.60
2018-09-10T08:12:38.950Z,54.70
2018-09-10T08:15:07.046Z,54.60
2018-09-10T08:17:35.116Z,54.60
2018-09-10T08:20:03.503Z,54.50
2018-09-10T08:22:31.580Z,54.40
2018-09-10T08:24:59.747Z,54.20
2018-09-10T08:27:27.769Z,54.10
2018-09-10T08:29:55.847Z,54.20
2018-09-10T08:32:23.887Z,54.20
2018-09-10T08:34:51.937Z,54.20
2018-09-10T08:37:19.997Z,53.70
2018-09-10T08:39:55.017Z,53.90
2018-09-10T08:42:23.054Z,53.90
2018-09-10T08:44:51.083Z,54.10
2018-09-10T08:47:19.115Z,53.90
2018-09-10T08:49:47.157Z,53.90
2018-09-10T08:52:15.223Z,53.50
2018-09-10T08:54:43.605Z,53.70
2018-09-10T08:57:11.399Z,53.90
2018-09-10T08:59:39.455Z,54.20
2018-09-10T09:02:07.494Z,54.40
2018-09-10T09:04:35.605Z,55.10
2018-09-10T09:07:03.647Z,54.60
2018-09-10T09:09:31.683Z,54.40
2018-09-10T09:11:59.716Z,54.00
2018-09-10T09:14:27.789Z,54.70
2018-09-10T09:16:55.827Z,54.00
2018-09-10T09:19:23.918Z,53.50
2018-09-10T09:21:51.975Z,53.10
2018-09-10T09:24:20.012Z,53.20
2018-09-10T09:26:48.073Z,53.70
2018-09-10T09:29:16.111Z,53.80
2018-09-10T09:31:44.206Z,53.10
2018-09-10T09:34:12.243Z,53.20
2018-09-10T09:36:45.702Z,53.00
2018-09-10T09:39:19.319Z,53.10
2018-09-10T09:41:52.639Z,53.00
2018-09-10T09:44:26.042Z,52.90
2018-09-10T09:46:54.079Z,53.30
2018-09-10T09:49:22.137Z,53.00
2018-09-10T09:51:50.707Z,53.00
2018-09-10T09:54:18.756Z,52.50
2018-09-10T09:56:46.943Z,51.70
2018-09-10T09:59:14.965Z,50.20
2018-09-10T10:01:47.547Z,50.20
2018-09-10T10:04:15.613Z,49.50
2018-09-10T10:06:43.684Z,48.60
2018-09-10T10:09:12.482Z,48.00
2018-09-10T10:11:41.132Z,46.80
2018-09-10T10:14:09.638Z,47.00
2018-09-10T10:16:37.945Z,47.10
2018-09-10T10:19:06.096Z,46.30
2018-09-10T10:21:34.158Z,46.90
2018-09-10T10:24:02.252Z,46.80
2018-09-10T10:26:30.293Z,46.50
2018-09-10T10:28:58.331Z,45.80
2018-09-10T10:31:26.481Z,44.70
2018-09-10T10:33:54.536Z,44.40
2018-09-10T10:36:22.604Z,44.60
2018-09-10T10:38:50.643Z,44.90
2018-09-10T10:41:18.673Z,45.20
2018-09-10T10:43:46.721Z,45.40
2018-09-10T10:46:14.773Z,45.60
2018-09-10T10:48:42.850Z,45.50
2018-09-10T10:51:10.914Z,45.60
2018-09-10T10:53:38.988Z,45.90
2018-09-10T10:56:07.012Z,45.90
2018-09-10T10:58:35.116Z,45.30
2018-09-10T11:01:03.144Z,45.00
2018-09-10T11:03:31.187Z,45.00
2018-09-10T11:05:59.207Z,44.60
2018-09-10T11:08:27.267Z,44.40
2018-09-10T11:10:55.296Z,43.70
2018-09-10T11:13:23.374Z,43.70
2018-09-10T11:15:51.511Z,42.70
2018-09-10T11:18:19.602Z,42.70
2018-09-10T11:20:47.660Z,43.00
2018-09-10T11:23:15.736Z,42.70
2018-09-10T11:25:43.786Z,43.00
2018-09-10T11:28:11.815Z,43.10
2018-09-10T11:30:39.863Z,43.30
2018-09-10T11:33:07.907Z,43.00
2018-09-10T11:35:35.962Z,42.90
2018-09-10T11:38:03.999Z,42.50
2018-09-10T11:40:32.158Z,42.00
2018-09-10T11:43:00.287Z,42.30
2018-09-10T11:45:28.323Z,42.30
2018-09-10T11:47:56.428Z,42.20
2018-09-10T11:50:24.475Z,42.50
2018-09-10T11:52:52.576Z,42.40
2018-09-10T11:55:20.649Z,42.30
2018-09-10T11:57:48.753Z,43.00
2018-09-10T12:00:16.799Z,42.90
2018-09-10T12:02:44.852Z,43.40
2018-09-10T12:05:12.883Z,43.60
2018-09-10T12:07:40.933Z,44.00
2018-09-10T12:10:09.080Z,44.40
2018-09-10T12:12:37.115Z,44.80
2018-09-10T12:15:05.511Z,45.20
2018-09-10T12:17:33.555Z,45.20
2018-09-10T12:20:01.591Z,44.80
2018-09-10T12:22:29.643Z,45.00
2018-09-10T12:24:57.791Z,44.80
2018-09-10T12:27:25.847Z,44.90
2018-09-10T12:29:53.951Z,45.00
2018-09-10T12:32:22.046Z,45.70
2018-09-10T12:34:50.056Z,45.40
2018-09-10T12:37:18.095Z,45.60
2018-09-10T12:39:46.222Z,45.80
2018-09-10T12:42:14.229Z,45.60
2018-09-10T12:44:42.266Z,45.60
2018-09-10T12:47:10.323Z,45.80
2018-09-10T12:49:38.399Z,46.10
2018-09-10T12:52:06.440Z,46.30
2018-09-10T12:54:34.476Z,45.50
2018-09-10T12:57:02.556Z,46.00
2018-09-10T12:59:30.877Z,46.50
2018-09-10T13:01:59.162Z,46.40
2018-09-10T13:04:27.187Z,46.40
2018-09-10T13:06:55.449Z,46.30
2018-09-10T13:09:23.507Z,46.10
2018-09-10T13:11:51.555Z,46.20
2018-09-10T13:14:19.597Z,46.30
2018-09-10T13:16:47.659Z,46.70
2018-09-10T13:19:15.774Z,46.60
2018-09-10T13:21:43.824Z,46.90
2018-09-10T13:24:11.887Z,47.20
2018-09-10T13:26:39.926Z,46.90
2018-09-10T13:29:07.955Z,47.10
2018-09-10T13:31:36.000Z,47.30
2018-09-10T13:34:04.095Z,47.20
2018-09-10T13:36:32.194Z,47.50
2018-09-10T13:39:00.210Z,47.60
2018-09-10T13:41:28.242Z,47.90
2018-09-10T13:43:56.316Z,47.40
2018-09-10T13:46:24.361Z,47.50
2018-09-10T13:48:52.411Z,47.70
2018-09-10T13:51:20.496Z,48.20
2018-09-10T13:53:48.543Z,48.30
2018-09-10T13:56:16.578Z,48.70
2018-09-10T13:58:44.687Z,49.60
2018-09-10T14:01:12.716Z,49.20
2018-09-10T14:03:40.843Z,49.70
2018-09-10T14:06:08.898Z,49.70
2018-09-10T14:08:37.215Z,49.80
2018-09-10T14:11:05.277Z,50.20
2018-09-10T14:13:33.329Z,52.20
2018-09-10T14:16:01.359Z,53.30
2018-09-10T14:18:29.403Z,54.00
2018-09-10T14:20:57.468Z,54.50
2018-09-10T14:23:26.073Z,54.90
2018-09-10T14:25:54.114Z,55.10
2018-09-10T14:28:22.288Z,55.20
2018-09-10T14:30:50.682Z,55.30
2018-09-10T14:33:18.723Z,55.30
2018-09-10T14:35:47.075Z,55.60
2018-09-10T14:38:15.111Z,55.60
2018-09-10T14:40:43.164Z,55.50
2018-09-10T14:43:11.241Z,55.50
2018-09-10T14:45:39.271Z,55.40
2018-09-10T14:48:07.321Z,54.80
2018-09-10T14:50:35.404Z,54.60
2018-09-10T14:53:03.416Z,54.20
2018-09-10T14:55:31.444Z,54.20
2018-09-10T14:57:59.484Z,54.50
2018-09-10T15:00:28.191Z,55.10
2018-09-10T15:02:56.987Z,54.60
2018-09-10T15:05:25.039Z,54.70
2018-09-10T15:07:53.952Z,55.00
2018-09-10T15:10:22.084Z,55.40
2018-09-10T15:12:50.201Z,55.90
2018-09-10T15:15:18.232Z,56.20
2018-09-10T15:17:46.547Z,56.60
2018-09-10T15:20:14.581Z,57.00
2018-09-10T15:22:42.756Z,57.30
2018-09-10T15:25:10.847Z,57.50
2018-09-10T15:27:39.163Z,57.80
2018-09-10T15:30:07.440Z,58.10
2018-09-10T15:32:35.515Z,58.20
2018-09-10T15:35:03.639Z,58.40
2018-09-10T15:37:31.691Z,58.60
2018-09-10T15:39:59.715Z,58.80
2018-09-10T15:42:27.784Z,59.50
2018-09-10T15:44:55.924Z,59.30
2018-09-10T15:47:24.011Z,59.60
2018-09-10T15:49:52.047Z,60.00
2018-09-10T15:52:20.151Z,60.60
2018-09-10T15:54:48.197Z,61.10
2018-09-10T15:57:16.273Z,61.60
2018-09-10T15:59:44.463Z,61.90
2018-09-10T16:02:12.519Z,62.00
2018-09-10T16:04:40.601Z,62.00
2018-09-10T16:07:08.657Z,61.40
2018-09-10T16:09:36.706Z,62.70
2018-09-10T16:12:04.751Z,62.50
2018-09-10T16:14:32.795Z,62.70
2018-09-10T16:17:00.904Z,62.70
2018-09-10T16:19:28.910Z,63.10
2018-09-10T16:21:56.947Z,63.50
2018-09-10T16:24:25.006Z,63.50
2018-09-10T16:26:53.057Z,63.80
2018-09-10T16:29:21.139Z,64.10
2018-09-10T16:31:49.160Z,64.60
2018-09-10T16:34:17.208Z,64.90
2018-09-10T16:36:45.248Z,65.30
2018-09-10T16:39:13.288Z,65.50
2018-09-10T16:41:41.331Z,65.90
2018-09-10T16:44:09.376Z,66.40
2018-09-10T16:46:37.592Z,66.70
2018-09-10T16:49:05.639Z,67.10
2018-09-10T16:51:34.519Z,67.60
2018-09-10T16:54:03.112Z,67.90
2018-09-10T16:56:31.133Z,68.20
2018-09-10T16:58:59.183Z,68.60
2018-09-10T17:01:27.257Z,68.80
2018-09-10T17:06:29.734Z,69.80
2018-09-10T17:08:57.791Z,70.10
2018-09-10T17:11:25.827Z,70.50
2018-09-10T17:13:53.879Z,71.00
2018-09-10T17:16:21.983Z,71.30
2018-09-10T17:18:50.049Z,71.90
2018-09-10T17:21:18.132Z,72.30
2018-09-10T17:23:46.335Z,72.80
2018-09-10T17:26:14.367Z,73.20
2018-09-10T17:28:42.954Z,74.00
2018-09-10T17:31:10.998Z,74.40
2018-09-10T17:33:39.053Z,75.00
2018-09-10T17:36:07.374Z,75.50
2018-09-10T17:38:35.442Z,76.40
2018-09-10T17:41:03.572Z,76.80
2018-09-10T17:43:31.741Z,77.50
2018-09-10T17:45:59.840Z,78.40
2018-09-10T17:48:27.909Z,78.90
2018-09-10T17:50:56.307Z,79.60
2018-09-10T17:53:24.391Z,79.60
2018-09-10T17:55:52.483Z,80.00
2018-09-10T17:58:20.862Z,80.50
2018-09-10T18:00:49.073Z,81.10
2018-09-10T18:03:16.996Z,81.60
2018-09-10T18:05:45.284Z,82.30
2018-09-10T18:08:13.642Z,82.80
2018-09-10T18:10:41.758Z,83.00
2018-09-10T18:13:09.852Z,83.70
2018-09-10T18:15:37.839Z,84.20
2018-09-10T18:18:05.896Z,84.30
2018-09-10T18:20:34.506Z,84.60
2018-09-10T18:23:02.588Z,85.10
2018-09-10T18:25:30.640Z,85.60
2018-09-10T18:27:58.735Z,86.10
2018-09-10T18:30:26.781Z,86.50
2018-09-10T18:32:54.840Z,87.20
2018-09-10T18:35:23.069Z,87.40
2018-09-10T18:37:51.141Z,87.90
2018-09-10T18:40:19.527Z,88.50
2018-09-10T18:42:47.551Z,89.00
2018-09-10T18:45:15.615Z,89.80
2018-09-10T18:47:43.650Z,90.20
2018-09-10T18:50:11.891Z,90.40
2018-09-10T18:52:39.948Z,90.70
2018-09-10T18:55:08.023Z,91.00
2018-09-10T18:57:36.649Z,91.20
2018-09-10T19:00:05.212Z,91.70
2018-09-10T19:02:33.265Z,91.90
2018-09-10T19:05:01.324Z,92.20
2018-09-10T19:07:29.368Z,92.30
2018-09-10T19:09:57.468Z,92.60
2018-09-10T19:12:25.463Z,92.20
2018-09-10T19:14:53.502Z,92.10
2018-09-10T19:17:21.543Z,92.00
2018-09-10T19:19:49.618Z,91.70
2018-09-10T19:22:17.726Z,92.00
2018-09-10T19:24:45.832Z,91.90
2018-09-10T19:27:13.969Z,91.90
2018-09-10T19:29:42.007Z,92.00
2018-09-10T19:32:10.031Z,91.90
2018-09-10T19:34:38.117Z,92.00
2018-09-10T19:37:06.215Z,92.10
2018-09-10T19:39:34.267Z,92.40
2018-09-10T19:42:02.311Z,92.60
2018-09-10T19:44:30.465Z,92.70
2018-09-10T19:46:58.504Z,92.90
2018-09-10T19:49:26.583Z,93.10
2018-09-10T19:51:54.633Z,93.50
2018-09-10T19:54:22.739Z,93.50
2018-09-10T19:56:50.763Z,93.70
2018-09-10T19:59:18.857Z,94.10
2018-09-10T20:01:46.839Z,94.20
2018-09-10T20:04:14.896Z,94.50
2018-09-10T20:06:43.034Z,94.60
2018-09-10T20:09:11.722Z,95.00
2018-09-10T20:11:40.169Z,95.30
2018-09-10T20:14:08.377Z,95.40
2018-09-10T20:16:36.438Z,95.80
2018-09-10T20:19:04.487Z,95.80
2018-09-10T20:21:32.540Z,95.90
2018-09-10T20:24:00.568Z,96.10
2018-09-10T20:26:28.679Z,96.00
2018-09-10T20:28:56.728Z,96.50
2018-09-10T20:31:24.763Z,96.50
2018-09-10T20:33:58.259Z,96.60
2018-09-10T20:36:26.295Z,96.70
2018-09-10T20:38:54.402Z,96.80
2018-09-10T20:41:22.544Z,96.90
2018-09-10T20:44:53.899Z,96.90
2018-09-10T20:47:21.932Z,96.90
2018-09-10T20:49:49.995Z,96.90
2018-09-10T20:52:18.247Z,96.90
2018-09-10T20:54:46.258Z,97.10
2018-09-10T20:57:14.361Z,97.20
2018-09-10T20:59:42.410Z,97.20
2018-09-10T21:02:10.449Z,97.10
2018-09-10T21:04:38.500Z,97.10
2018-09-10T21:07:06.566Z,97.20
2018-09-10T21:09:34.607Z,97.10
2018-09-10T21:12:02.656Z,97.00
2018-09-10T21:14:30.751Z,96.90
2018-09-10T21:16:58.808Z,96.90
2018-09-10T21:19:26.882Z,96.90
2018-09-10T21:21:54.921Z,97.90
2018-09-10T21:24:22.971Z,98.40
2018-09-10T21:26:51.020Z,98.20
2018-09-10T21:29:19.060Z,98.10
2018-09-10T21:31:47.105Z,98.60
2018-09-10T21:34:15.143Z,99.00
2018-09-10T21:36:43.197Z,98.80
2018-09-10T21:39:11.338Z,98.20
2018-09-10T21:41:39.732Z,97.90
2018-09-10T21:44:08.203Z,97.80
2018-09-10T21:46:36.276Z,97.60
2018-09-10T21:49:04.324Z,97.50
2018-09-10T21:51:32.363Z,97.40
2018-09-10T21:54:00.488Z,97.30
2018-09-10T21:56:28.583Z,97.30
2018-09-10T21:58:56.663Z,97.50
2018-09-10T22:01:24.692Z,97.20
2018-09-10T22:03:52.762Z,97.20
2018-09-10T22:06:20.835Z,97.20
2018-09-10T22:08:48.887Z,97.20
2018-09-10T22:11:16.945Z,97.30
2018-09-10T22:13:44.975Z,97.40
2018-09-10T22:16:13.027Z,97.40
2018-09-10T22:18:41.060Z,97.70
2018-09-10T22:21:09.155Z,97.80
2018-09-10T22:23:37.201Z,97.80
2018-09-10T22:26:05.294Z,97.90
2018-09-10T22:28:33.330Z,97.90
2018-09-10T22:31:01.435Z,97.90
2018-09-10T22:33:29.475Z,97.90
2018-09-10T22:35:57.514Z,98.00
2018-09-10T22:38:25.557Z,97.90
2018-09-10T22:40:53.591Z,97.90
2018-09-10T22:43:21.639Z,97.80
2018-09-10T22:45:49.688Z,97.80
2018-09-10T22:48:17.827Z,97.70
2018-09-10T22:50:45.867Z,97.60
2018-09-10T22:53:13.896Z,97.70
2018-09-10T22:55:41.941Z,97.80
2018-09-10T22:58:09.955Z,97.90
2018-09-10T23:00:38.016Z,97.90
2018-09-10T23:03:06.043Z,98.00
2018-09-10T23:05:34.109Z,98.10
2018-09-10T23:08:02.150Z,98.20
2018-09-10T23:10:30.196Z,98.10
2018-09-10T23:12:58.248Z,98.10
2018-09-10T23:15:26.315Z,98.30
2018-09-10T23:17:54.347Z,98.40
2018-09-10T23:20:22.383Z,98.70
2018-09-10T23:22:50.424Z,98.60
2018-09-10T23:25:18.456Z,98.80
2018-09-10T23:27:46.493Z,98.90
2018-09-10T23:30:14.538Z,99.10
2018-09-10T23:32:42.596Z,99.10
2018-09-10T23:35:10.640Z,99.10
2018-09-10T23:37:38.739Z,99.50
2018-09-10T23:40:07.012Z,99.30
2018-09-10T23:42:35.079Z,99.40
2018-09-10T23:45:03.151Z,99.80
2018-09-10T23:47:31.191Z,99.90
2018-09-10T23:49:59.304Z,99.50
2018-09-10T23:52:27.336Z,99.70
2018-09-10T23:54:55.371Z,99.80
2018-09-10T23:57:23.424Z,99.90
2018-09-10T23:59:51.451Z,99.90
